createdAt,value
2017-03-11T00:00:29.924Z,0
2017-03-11T00:01:31.830Z,0
2017-03-11T00:02:34.147Z,0
2017-03-11T00:03:36.426Z,0
2017-03-11T00:04:38.701Z,0
2017-03-11T00:05:40.635Z,0
2017-03-11T00:06:42.500Z,0
2017-03-11T00:07:44.800Z,0
2017-03-11T00:08:46.661Z,0
2017-03-11T00:09:48.966Z,0
2017-03-11T00:10:51.236Z,0
2017-03-11T00:11:53.532Z,0
2017-03-11T00:12:55.414Z,0
2017-03-11T00:13:57.300Z,0
2017-03-11T00:14:59.152Z,0
2017-03-11T00:16:01.459Z,0
2017-03-11T00:17:03.317Z,0
2017-03-11T00:18:05.612Z,0
2017-03-11T00:19:07.484Z,0
2017-03-11T00:20:09.778Z,0
2017-03-11T00:21:11.673Z,0
2017-03-11T00:22:13.550Z,0
2017-03-11T00:23:15.864Z,0
2017-03-11T00:24:17.756Z,0
2017-03-11T00:25:20.069Z,0
2017-03-11T00:26:21.969Z,0
2017-03-11T00:27:24.664Z,0
2017-03-11T00:28:26.959Z,0
2017-03-11T00:29:29.257Z,0
2017-03-11T00:30:31.546Z,0
2017-03-11T00:31:33.864Z,0
2017-03-11T00:32:36.545Z,0
2017-03-11T00:33:38.432Z,0
2017-03-11T00:34:40.297Z,0
2017-03-11T00:35:43.008Z,0
2017-03-11T00:36:45.314Z,0
2017-03-11T00:37:47.604Z,0
2017-03-11T00:38:49.467Z,0
2017-03-11T00:39:51.353Z,0
2017-03-11T00:40:53.215Z,0
2017-03-11T00:41:55.123Z,0
2017-03-11T00:42:57.421Z,0
2017-03-11T00:43:59.288Z,0
2017-03-11T00:45:01.597Z,0
2017-03-11T00:46:03.898Z,0
2017-03-11T00:47:06.167Z,0
2017-03-11T00:48:08.031Z,0
2017-03-11T00:49:09.906Z,0
2017-03-11T00:50:11.793Z,0
2017-03-11T00:51:14.101Z,0
2017-03-11T00:52:15.973Z,0
2017-03-11T00:53:17.843Z,0
2017-03-11T00:54:20.128Z,0
2017-03-11T00:55:22.002Z,0
2017-03-11T00:56:24.291Z,0
2017-03-11T00:57:26.165Z,0
2017-03-11T00:58:28.869Z,0
2017-03-11T00:59:30.725Z,0
2017-03-11T01:00:32.605Z,0
2017-03-11T01:01:34.912Z,0
2017-03-11T01:02:37.202Z,0
2017-03-11T01:03:39.071Z,0
2017-03-11T01:04:40.967Z,0
2017-03-11T01:05:42.841Z,0
2017-03-11T01:06:44.696Z,0
2017-03-11T01:07:46.567Z,0
2017-03-11T01:08:48.855Z,0
2017-03-11T01:09:50.712Z,0
2017-03-11T01:10:53.009Z,0
2017-03-11T01:11:54.886Z,0
2017-03-11T01:12:57.168Z,0
2017-03-11T01:13:59.052Z,0
2017-03-11T01:15:00.894Z,0
2017-03-11T01:16:03.200Z,0
2017-03-11T01:17:05.047Z,0
2017-03-11T01:18:06.921Z,0
2017-03-11T01:19:08.811Z,0
2017-03-11T01:20:10.664Z,0
2017-03-11T01:21:12.531Z,0
2017-03-11T01:22:14.813Z,0
2017-03-11T01:23:16.682Z,0
2017-03-11T01:24:18.543Z,0
2017-03-11T01:25:20.433Z,0
2017-03-11T01:26:22.303Z,0
2017-03-11T01:27:24.163Z,0
2017-03-11T01:28:26.017Z,0
2017-03-11T01:29:27.869Z,0
2017-03-11T01:30:29.770Z,0
2017-03-11T01:31:31.640Z,0
2017-03-11T01:32:33.507Z,0
2017-03-11T01:33:35.820Z,0
2017-03-11T01:34:38.137Z,0
2017-03-11T01:35:40.005Z,0
2017-03-11T01:36:42.321Z,0
2017-03-11T01:37:45.039Z,0
2017-03-11T01:38:46.917Z,0
2017-03-11T01:39:49.197Z,0
2017-03-11T01:40:51.059Z,0
2017-03-11T01:41:53.333Z,0
2017-03-11T01:42:55.230Z,0
2017-03-11T01:43:57.497Z,0
2017-03-11T01:44:59.814Z,0
2017-03-11T01:46:01.689Z,0
2017-03-11T01:47:03.973Z,0
2017-03-11T01:48:05.844Z,0
2017-03-11T01:49:07.705Z,0
2017-03-11T01:50:10.007Z,0
2017-03-11T01:51:11.874Z,0
2017-03-11T01:52:13.772Z,0
2017-03-11T01:53:15.636Z,0
2017-03-11T01:54:17.934Z,0
2017-03-11T01:55:19.831Z,0
2017-03-11T01:56:21.698Z,0
2017-03-11T01:57:23.554Z,0
2017-03-11T01:58:25.434Z,0
2017-03-11T01:59:27.293Z,0
2017-03-11T02:00:29.192Z,0
2017-03-11T02:01:31.029Z,0
2017-03-11T02:02:32.905Z,0
2017-03-11T02:03:34.793Z,0
2017-03-11T02:04:36.673Z,0
2017-03-11T02:05:38.543Z,0
2017-03-11T02:06:40.443Z,0
2017-03-11T02:07:42.728Z,0
2017-03-11T02:08:45.001Z,0
2017-03-11T02:09:46.868Z,0
2017-03-11T02:10:48.727Z,0
2017-03-11T02:11:50.600Z,0
2017-03-11T02:12:52.873Z,0
2017-03-11T02:13:54.738Z,0
2017-03-11T02:14:56.607Z,0
2017-03-11T02:15:58.509Z,0
2017-03-11T02:17:00.382Z,0
2017-03-11T02:18:02.247Z,0
2017-03-11T02:19:04.121Z,0
2017-03-11T02:20:06.007Z,0
2017-03-11T02:21:07.881Z,0
2017-03-11T02:22:10.156Z,0
2017-03-11T02:23:12.054Z,0
2017-03-11T02:24:13.915Z,0
2017-03-11T02:25:15.782Z,0
2017-03-11T02:26:18.485Z,0
2017-03-11T02:27:20.358Z,0
2017-03-11T02:28:22.671Z,0
2017-03-11T02:29:24.531Z,0
2017-03-11T02:30:27.237Z,0
2017-03-11T02:31:30.374Z,0
2017-03-11T02:32:32.660Z,0
2017-03-11T02:33:34.950Z,0
2017-03-11T02:34:36.838Z,0
2017-03-11T02:35:39.994Z,0
2017-03-11T02:36:41.858Z,0
2017-03-11T02:37:43.748Z,0
2017-03-11T02:38:45.603Z,0
2017-03-11T02:39:47.485Z,0
2017-03-11T02:40:49.344Z,0
2017-03-11T02:41:51.236Z,0
2017-03-11T02:42:53.507Z,0
2017-03-11T02:43:55.385Z,0
2017-03-11T02:44:57.252Z,0
2017-03-11T02:45:59.129Z,0
2017-03-11T02:47:01.026Z,0
2017-03-11T02:48:03.313Z,0
2017-03-11T02:49:06.042Z,0
2017-03-11T02:50:08.315Z,0
2017-03-11T02:51:10.190Z,0
2017-03-11T02:52:12.046Z,0
2017-03-11T02:53:13.929Z,0
2017-03-11T02:54:16.657Z,0
2017-03-11T02:55:18.536Z,0
2017-03-11T02:56:20.793Z,0
2017-03-11T02:57:22.671Z,0
2017-03-11T02:58:24.531Z,0
2017-03-11T02:59:26.853Z,0
2017-03-11T03:00:29.146Z,0
2017-03-11T03:01:31.025Z,0
2017-03-11T03:02:32.885Z,0
2017-03-11T03:03:35.180Z,0
2017-03-11T03:04:37.054Z,0
2017-03-11T03:05:39.334Z,0
2017-03-11T03:06:41.634Z,0
2017-03-11T03:07:43.523Z,0
2017-03-11T03:08:45.376Z,0
2017-03-11T03:09:47.238Z,0
2017-03-11T03:10:49.127Z,0
2017-03-11T03:11:51.001Z,0
2017-03-11T03:12:53.282Z,0
2017-03-11T03:13:55.990Z,0
2017-03-11T03:14:58.289Z,0
2017-03-11T03:16:00.165Z,0
2017-03-11T03:17:02.045Z,0
2017-03-11T03:18:04.313Z,0
2017-03-11T03:19:06.597Z,0
2017-03-11T03:20:08.470Z,0
2017-03-11T03:21:10.812Z,0
2017-03-11T03:22:12.663Z,0
2017-03-11T03:23:14.555Z,0
2017-03-11T03:24:16.420Z,0
2017-03-11T03:25:18.741Z,0
2017-03-11T03:26:20.602Z,0
2017-03-11T03:27:22.484Z,0
2017-03-11T03:28:24.793Z,0
2017-03-11T03:29:26.674Z,0
2017-03-11T03:30:28.550Z,0
2017-03-11T03:31:30.423Z,0
2017-03-11T03:32:32.713Z,0
2017-03-11T03:33:34.590Z,0
2017-03-11T03:34:36.456Z,0
2017-03-11T03:35:38.324Z,0
2017-03-11T03:36:40.182Z,0
2017-03-11T03:37:42.483Z,0
2017-03-11T03:38:44.375Z,0
2017-03-11T03:39:46.228Z,0
2017-03-11T03:40:48.511Z,0
2017-03-11T03:41:50.389Z,0
2017-03-11T03:42:52.277Z,0
2017-03-11T03:43:54.138Z,0
2017-03-11T03:44:56.432Z,0
2017-03-11T03:45:58.409Z,0
2017-03-11T03:47:00.272Z,0
2017-03-11T03:48:02.162Z,0
2017-03-11T03:49:04.028Z,0
2017-03-11T03:50:06.301Z,0
2017-03-11T03:51:08.622Z,0
2017-03-11T03:52:10.488Z,0
2017-03-11T03:53:12.373Z,0
2017-03-11T03:54:14.257Z,0
2017-03-11T03:55:16.142Z,0
2017-03-11T03:56:17.990Z,0
2017-03-11T03:57:19.838Z,0
2017-03-11T03:58:22.144Z,0
2017-03-11T03:59:24.033Z,0
2017-03-11T04:00:25.906Z,0
2017-03-11T04:01:27.772Z,0
2017-03-11T04:02:29.641Z,0
2017-03-11T04:03:31.515Z,0
2017-03-11T04:04:33.412Z,0
2017-03-11T04:05:35.281Z,0
2017-03-11T04:06:37.169Z,0
2017-03-11T04:07:39.072Z,0
2017-03-11T04:08:40.942Z,0
2017-03-11T04:09:42.810Z,0
2017-03-11T04:10:44.672Z,0
2017-03-11T04:11:46.527Z,0
2017-03-11T04:12:48.859Z,0
2017-03-11T04:13:50.727Z,0
2017-03-11T04:14:52.597Z,0
2017-03-11T04:15:54.462Z,0
2017-03-11T04:16:56.325Z,0
2017-03-11T04:17:58.198Z,0
2017-03-11T04:19:00.497Z,0
2017-03-11T04:20:02.795Z,0
2017-03-11T04:21:05.076Z,0
2017-03-11T04:22:06.967Z,0
2017-03-11T04:23:09.253Z,0
2017-03-11T04:24:11.555Z,0
2017-03-11T04:25:13.827Z,0
2017-03-11T04:26:16.127Z,0
2017-03-11T04:27:18.013Z,0
2017-03-11T04:28:19.886Z,0
2017-03-11T04:29:21.805Z,0
2017-03-11T04:30:23.663Z,0
2017-03-11T04:31:25.933Z,0
2017-03-11T04:32:28.239Z,0
2017-03-11T04:33:30.108Z,0
2017-03-11T04:34:31.981Z,0
2017-03-11T04:35:33.830Z,0
2017-03-11T04:36:35.693Z,0
2017-03-11T04:37:37.568Z,0
2017-03-11T04:38:39.440Z,0
2017-03-11T04:39:41.313Z,0
2017-03-11T04:40:43.179Z,0
2017-03-11T04:41:45.885Z,0
2017-03-11T04:42:47.738Z,0
2017-03-11T04:43:49.632Z,0
2017-03-11T04:44:52.327Z,0
2017-03-11T04:45:54.647Z,0
2017-03-11T04:46:56.941Z,0
2017-03-11T04:47:58.805Z,0
2017-03-11T04:49:00.688Z,0
2017-03-11T04:50:02.571Z,0
2017-03-11T04:51:04.887Z,0
2017-03-11T04:52:06.774Z,0
2017-03-11T04:53:09.055Z,0
2017-03-11T04:54:10.956Z,0
2017-03-11T04:55:12.805Z,0
2017-03-11T04:56:14.694Z,0
2017-03-11T04:57:17.006Z,0
2017-03-11T04:58:19.305Z,0
2017-03-11T04:59:22.010Z,0
2017-03-11T05:00:23.885Z,0
2017-03-11T05:01:25.767Z,0
2017-03-11T05:02:28.045Z,1
2017-03-11T05:03:29.913Z,1
2017-03-11T05:04:32.204Z,1
2017-03-11T05:05:34.132Z,1
2017-03-11T05:06:36.433Z,2
2017-03-11T05:07:38.294Z,2
2017-03-11T05:08:40.163Z,1
2017-03-11T05:09:42.052Z,3
2017-03-11T05:10:44.343Z,3
2017-03-11T05:11:47.068Z,3
2017-03-11T05:12:49.337Z,3
2017-03-11T05:13:51.636Z,3
2017-03-11T05:14:53.493Z,4
2017-03-11T05:15:55.367Z,4
2017-03-11T05:16:57.662Z,7
2017-03-11T05:17:59.950Z,6
2017-03-11T05:19:01.823Z,9
2017-03-11T05:20:03.701Z,11
2017-03-11T05:21:05.571Z,12
2017-03-11T05:22:07.433Z,14
2017-03-11T05:23:09.337Z,15
2017-03-11T05:24:11.199Z,17
2017-03-11T05:25:13.051Z,19
2017-03-11T05:26:14.907Z,24
2017-03-11T05:27:17.239Z,26
2017-03-11T05:28:19.085Z,30
2017-03-11T05:29:20.948Z,34
2017-03-11T05:30:23.216Z,37
2017-03-11T05:31:25.950Z,42
2017-03-11T05:32:27.816Z,47
2017-03-11T05:33:30.086Z,50
2017-03-11T05:34:31.961Z,60
2017-03-11T05:35:33.835Z,70
2017-03-11T05:36:35.695Z,77
2017-03-11T05:37:37.570Z,87
2017-03-11T05:38:40.266Z,100
2017-03-11T05:39:42.144Z,112
2017-03-11T05:40:44.013Z,128
2017-03-11T05:41:45.910Z,140
2017-03-11T05:42:47.787Z,148
2017-03-11T05:43:49.689Z,154
2017-03-11T05:44:51.581Z,166
2017-03-11T05:45:53.440Z,185
2017-03-11T05:46:55.309Z,201
2017-03-11T05:47:57.194Z,212
2017-03-11T05:48:59.058Z,224
2017-03-11T05:50:01.358Z,239
2017-03-11T05:51:04.093Z,260
2017-03-11T05:52:05.976Z,273
2017-03-11T05:53:07.859Z,280
2017-03-11T05:54:10.163Z,286
2017-03-11T05:55:12.456Z,296
2017-03-11T05:56:14.768Z,324
2017-03-11T05:57:16.633Z,373
2017-03-11T05:58:18.508Z,428
2017-03-11T05:59:20.436Z,445
2017-03-11T06:00:22.798Z,443
2017-03-11T06:01:25.306Z,442
2017-03-11T06:02:27.231Z,427
2017-03-11T06:04:58.835Z,440
2017-03-11T06:06:00.741Z,459
2017-03-11T06:07:02.639Z,485
2017-03-11T06:08:04.589Z,534
2017-03-11T06:09:07.023Z,568
2017-03-11T06:10:09.003Z,601
2017-03-11T06:11:11.034Z,648
2017-03-11T06:12:13.049Z,690
2017-03-11T06:13:15.393Z,735
2017-03-11T06:14:17.267Z,781
2017-03-11T06:15:19.138Z,819
2017-03-11T06:16:21.450Z,862
2017-03-11T06:17:23.342Z,910
2017-03-11T06:18:25.214Z,960
2017-03-11T06:19:27.076Z,995
2017-03-11T06:20:28.954Z,1012
2017-03-11T06:21:30.852Z,1007
2017-03-11T06:22:32.710Z,991
2017-03-11T06:23:34.596Z,980
2017-03-11T06:24:36.888Z,986
2017-03-11T06:25:38.806Z,1013
2017-03-11T06:26:41.159Z,1047
2017-03-11T06:27:43.015Z,1076
2017-03-11T06:28:44.949Z,1100
2017-03-11T06:29:46.846Z,1120
2017-03-11T06:30:48.806Z,1142
2017-03-11T06:31:51.187Z,1165
2017-03-11T06:32:53.185Z,1180
2017-03-11T06:33:55.187Z,1197
2017-03-11T06:34:57.638Z,1211
2017-03-11T06:36:00.035Z,1230
2017-03-11T06:37:01.937Z,1248
2017-03-11T06:38:03.806Z,1261
2017-03-11T06:39:05.695Z,1271
2017-03-11T06:40:07.569Z,1289
2017-03-11T06:41:09.878Z,1312
2017-03-11T06:42:11.782Z,1356
2017-03-11T06:43:13.663Z,1409
2017-03-11T06:44:15.556Z,1444
2017-03-11T06:45:17.425Z,1484
2017-03-11T06:46:19.344Z,1555
2017-03-11T06:47:21.213Z,1645
2017-03-11T06:48:23.532Z,1726
2017-03-11T06:49:25.829Z,1802
2017-03-11T06:50:28.133Z,1867
2017-03-11T06:51:30.860Z,1882
2017-03-11T06:52:32.746Z,1853
2017-03-11T06:53:34.598Z,1752
2017-03-11T06:54:36.477Z,1686
2017-03-11T06:55:38.763Z,1702
2017-03-11T06:56:40.657Z,1722
2017-03-11T06:57:43.374Z,1675
2017-03-11T06:58:45.245Z,1579
2017-03-11T06:59:47.187Z,1480
2017-03-11T07:00:49.556Z,1464
2017-03-11T07:01:51.431Z,1542
2017-03-11T07:02:53.414Z,1695
2017-03-11T07:03:55.896Z,1881
2017-03-11T07:04:58.371Z,2013
2017-03-11T07:06:00.843Z,2077
2017-03-11T07:07:02.860Z,2096
2017-03-11T07:08:05.330Z,2090
2017-03-11T07:09:07.733Z,2075
2017-03-11T07:10:09.816Z,2108
2017-03-11T07:11:11.815Z,2181
2017-03-11T07:12:13.725Z,2269
2017-03-11T07:13:15.621Z,2373
2017-03-11T07:14:17.506Z,2450
2017-03-11T07:15:19.432Z,2432
2017-03-11T07:16:21.591Z,2321
2017-03-11T07:17:23.525Z,2233
2017-03-11T07:18:25.513Z,2201
2017-03-11T07:19:27.416Z,2206
2017-03-11T07:20:29.393Z,2206
2017-03-11T07:21:31.478Z,2152
2017-03-11T07:22:33.785Z,2083
2017-03-11T07:23:36.102Z,2061
2017-03-11T07:24:38.416Z,2101
2017-03-11T07:25:40.336Z,2185
2017-03-11T07:26:42.568Z,2333
2017-03-11T07:27:44.497Z,2535
2017-03-11T07:28:46.423Z,2799
2017-03-11T07:29:48.817Z,3036
2017-03-11T07:30:51.141Z,3249
2017-03-11T07:31:53.023Z,3376
2017-03-11T07:32:54.916Z,3376
2017-03-11T07:33:57.280Z,3282
2017-03-11T07:34:59.248Z,3137
2017-03-11T07:36:01.554Z,3089
2017-03-11T07:37:03.593Z,3121
2017-03-11T07:38:05.535Z,3271
2017-03-11T07:39:07.705Z,3566
2017-03-11T07:40:10.018Z,3781
2017-03-11T07:41:11.949Z,3843
2017-03-11T07:42:13.946Z,3898
2017-03-11T07:43:15.850Z,3946
2017-03-11T07:44:17.713Z,4028
2017-03-11T07:45:19.602Z,4078
2017-03-11T07:46:21.534Z,4087
2017-03-11T07:47:23.455Z,4087
2017-03-11T07:48:25.659Z,4134
2017-03-11T07:49:27.535Z,4189
2017-03-11T07:50:29.511Z,4198
2017-03-11T07:51:31.428Z,4087
2017-03-11T07:52:34.169Z,3847
2017-03-11T07:53:36.061Z,3641
2017-03-11T07:54:37.982Z,3531
2017-03-11T07:55:39.898Z,3498
2017-03-11T07:56:41.791Z,3513
2017-03-11T07:57:43.677Z,3553
2017-03-11T07:58:45.868Z,3553
2017-03-11T07:59:48.617Z,3473
2017-03-11T08:00:50.963Z,3361
2017-03-11T08:01:53.296Z,3249
2017-03-11T08:02:55.208Z,3218
2017-03-11T08:03:58.150Z,3274
2017-03-11T08:05:00.266Z,3403
2017-03-11T08:06:02.187Z,3450
2017-03-11T08:07:04.546Z,3401
2017-03-11T08:08:06.486Z,3377
2017-03-11T08:09:08.372Z,3410
2017-03-11T08:10:10.315Z,3353
2017-03-11T08:11:12.395Z,3307
2017-03-11T08:12:14.292Z,3203
2017-03-11T08:13:16.239Z,3203
2017-03-11T08:14:18.550Z,3322
2017-03-11T08:15:20.453Z,3537
2017-03-11T08:16:22.619Z,3791
2017-03-11T08:17:24.493Z,4197
2017-03-11T08:18:26.342Z,4715
2017-03-11T08:19:28.257Z,5130
2017-03-11T08:20:30.167Z,5280
2017-03-11T08:21:33.183Z,5176
2017-03-11T08:22:35.063Z,4897
2017-03-11T08:23:36.978Z,4609
2017-03-11T08:24:39.803Z,4481
2017-03-11T08:25:41.721Z,4626
2017-03-11T08:26:43.628Z,5000
2017-03-11T08:27:45.961Z,5559
2017-03-11T08:28:48.340Z,5662
2017-03-11T08:29:51.077Z,5621
2017-03-11T08:30:53.449Z,5709
2017-03-11T08:31:55.307Z,5717
2017-03-11T08:32:57.660Z,6014
2017-03-11T08:33:59.548Z,6723
2017-03-11T08:35:02.001Z,6395
2017-03-11T08:36:04.336Z,6194
2017-03-11T08:37:06.289Z,6018
2017-03-11T08:38:08.611Z,6487
2017-03-11T08:39:10.949Z,7131
2017-03-11T08:40:13.317Z,7888
2017-03-11T08:41:15.206Z,8310
2017-03-11T08:42:17.138Z,8246
2017-03-11T08:43:19.555Z,7925
2017-03-11T08:44:21.476Z,7603
2017-03-11T08:45:23.356Z,7524
2017-03-11T08:46:25.215Z,7771
2017-03-11T08:47:27.359Z,7868
2017-03-11T08:48:29.238Z,7423
2017-03-11T08:49:31.570Z,6737
2017-03-11T08:50:33.458Z,6436
2017-03-11T08:51:35.340Z,6509
2017-03-11T08:52:37.219Z,6472
2017-03-11T08:53:39.129Z,6018
2017-03-11T08:54:40.994Z,5858
2017-03-11T08:55:43.737Z,6203
2017-03-11T08:56:46.038Z,6122
2017-03-11T08:57:48.383Z,5891
2017-03-11T08:58:50.745Z,5891
2017-03-11T08:59:52.673Z,6162
2017-03-11T09:00:54.559Z,6568
2017-03-11T09:01:56.470Z,6758
2017-03-11T09:02:58.385Z,6669
2017-03-11T09:04:00.694Z,6673
2017-03-11T09:05:02.617Z,6953
2017-03-11T09:06:04.508Z,7155
2017-03-11T09:07:06.439Z,7301
2017-03-11T09:08:08.335Z,7405
2017-03-11T09:09:10.221Z,7453
2017-03-11T09:10:12.105Z,7295
2017-03-11T09:11:14.855Z,6729
2017-03-11T09:12:16.750Z,6012
2017-03-11T09:13:18.651Z,5612
2017-03-11T09:14:20.545Z,5636
2017-03-11T09:15:22.449Z,5794
2017-03-11T09:16:24.351Z,5954
2017-03-11T09:17:26.691Z,5921
2017-03-11T09:18:29.008Z,5807
2017-03-11T09:19:30.923Z,5871
2017-03-11T09:20:33.244Z,6038
2017-03-11T09:21:35.551Z,6236
2017-03-11T09:22:37.430Z,6537
2017-03-11T09:23:39.333Z,6937
2017-03-11T09:24:41.203Z,7177
2017-03-11T09:25:43.499Z,7091
2017-03-11T09:26:45.815Z,6652
2017-03-11T09:27:47.708Z,6150
2017-03-11T09:28:49.997Z,5798
2017-03-11T09:29:51.939Z,5862
2017-03-11T09:30:53.801Z,6213
2017-03-11T09:31:56.635Z,6836
2017-03-11T09:32:58.512Z,7386
2017-03-11T09:34:00.397Z,7881
2017-03-11T09:35:02.306Z,8423
2017-03-11T09:36:05.018Z,8902
2017-03-11T09:37:06.887Z,9068
2017-03-11T09:38:08.773Z,8867
2017-03-11T09:39:11.115Z,8667
2017-03-11T09:40:13.002Z,8532
2017-03-11T09:41:14.855Z,8429
2017-03-11T09:42:16.727Z,8158
2017-03-11T09:43:18.578Z,7824
2017-03-11T09:44:20.482Z,7844
2017-03-11T09:45:22.376Z,7871
2017-03-11T09:46:24.281Z,7224
2017-03-11T09:47:26.168Z,6545
2017-03-11T09:48:28.039Z,5994
2017-03-11T09:49:30.363Z,5849
2017-03-11T09:50:33.098Z,6065
2017-03-11T09:51:35.407Z,6430
2017-03-11T09:52:37.262Z,6964
2017-03-11T09:53:40.006Z,7505
2017-03-11T09:54:41.885Z,7894
2017-03-11T09:55:44.208Z,8235
2017-03-11T09:56:46.082Z,8567
2017-03-11T09:57:48.405Z,9004
2017-03-11T09:58:50.304Z,9607
2017-03-11T09:59:52.178Z,10227
2017-03-11T10:00:54.509Z,10704
2017-03-11T10:01:56.811Z,11118
2017-03-11T10:02:59.101Z,11459
2017-03-11T10:04:01.061Z,11802
2017-03-11T10:05:03.361Z,12060
2017-03-11T10:06:05.688Z,12141
2017-03-11T10:07:07.590Z,11966
2017-03-11T10:08:09.444Z,11449
2017-03-11T10:09:11.340Z,10780
2017-03-11T10:10:13.215Z,9989
2017-03-11T10:11:15.106Z,9277
2017-03-11T10:12:16.983Z,9079
2017-03-11T10:13:18.969Z,9222
2017-03-11T10:14:20.860Z,9468
2017-03-11T10:15:22.734Z,9769
2017-03-11T10:16:24.616Z,10141
2017-03-11T10:17:26.908Z,10553
2017-03-11T10:18:28.788Z,10775
2017-03-11T10:19:30.685Z,10918
2017-03-11T10:20:32.586Z,10950
2017-03-11T10:21:35.302Z,10952
2017-03-11T10:22:37.638Z,11398
2017-03-11T10:23:39.529Z,11785
2017-03-11T10:24:41.391Z,12110
2017-03-11T10:25:43.252Z,13325
2017-03-11T10:26:45.148Z,14966
2017-03-11T10:27:47.056Z,16240
2017-03-11T10:28:48.947Z,17533
2017-03-11T10:29:51.273Z,17420
2017-03-11T10:30:53.170Z,19159
2017-03-11T10:31:55.064Z,19360
2017-03-11T10:32:57.370Z,16744
2017-03-11T10:33:59.235Z,16571
2017-03-11T10:35:01.112Z,17187
2017-03-11T10:36:03.433Z,20651
2017-03-11T10:37:05.325Z,20776
2017-03-11T10:38:07.644Z,25271
2017-03-11T10:39:09.524Z,22813
2017-03-11T10:40:11.394Z,25359
2017-03-11T10:41:13.289Z,23326
2017-03-11T10:42:15.596Z,21715
2017-03-11T10:43:17.503Z,22325
2017-03-11T10:44:19.380Z,18931
2017-03-11T10:45:21.311Z,13979
2017-03-11T10:46:23.193Z,10651
2017-03-11T10:47:25.144Z,11107
2017-03-11T10:48:26.993Z,12525
2017-03-11T10:49:28.872Z,15007
2017-03-11T10:50:31.614Z,16790
2017-03-11T10:51:33.905Z,22084
2017-03-11T10:52:35.791Z,21573
2017-03-11T10:53:37.654Z,20860
2017-03-11T10:54:40.396Z,21888
2017-03-11T10:55:42.274Z,25410
2017-03-11T10:56:44.586Z,21708
2017-03-11T10:57:46.882Z,22974
2017-03-11T10:58:49.196Z,20958
2017-03-11T10:59:51.078Z,20240
2017-03-11T11:00:52.970Z,19309
2017-03-11T11:01:55.275Z,20548
2017-03-11T11:02:57.620Z,18311
2017-03-11T11:03:59.501Z,16437
2017-03-11T11:05:01.805Z,20189
2017-03-11T11:06:03.702Z,16513
2017-03-11T11:07:05.594Z,14732
2017-03-11T11:08:07.462Z,15916
2017-03-11T11:09:09.764Z,15523
2017-03-11T11:10:12.082Z,13114
2017-03-11T11:11:14.809Z,15331
2017-03-11T11:12:16.668Z,17511
2017-03-11T11:13:18.528Z,19521
2017-03-11T11:14:20.845Z,20318
2017-03-11T11:15:22.766Z,18439
2017-03-11T11:16:24.645Z,23951
2017-03-11T11:17:26.530Z,65536
2017-03-11T11:18:28.435Z,65536
2017-03-11T11:19:30.330Z,65536
2017-03-11T11:20:32.204Z,19824
2017-03-11T11:21:34.053Z,19006
2017-03-11T11:22:35.921Z,18098
2017-03-11T11:23:37.843Z,17929
2017-03-11T11:24:39.738Z,18806
2017-03-11T11:25:42.053Z,19248
2017-03-11T11:26:43.947Z,31417
2017-03-11T11:27:46.240Z,65536
2017-03-11T11:28:48.140Z,21813
2017-03-11T11:29:50.469Z,65536
2017-03-11T11:30:52.777Z,17208
2017-03-11T11:31:54.695Z,16650
2017-03-11T11:32:56.583Z,16154
2017-03-11T11:33:58.463Z,14799
2017-03-11T11:35:00.333Z,14200
2017-03-11T11:36:02.345Z,14673
2017-03-11T11:37:04.623Z,18821
2017-03-11T11:38:06.518Z,21564
2017-03-11T11:39:08.378Z,17511
2017-03-11T11:40:10.282Z,21066
2017-03-11T11:41:12.179Z,22045
2017-03-11T11:42:14.041Z,29030
2017-03-11T11:43:16.378Z,65536
2017-03-11T11:44:18.254Z,65536
2017-03-11T11:45:20.574Z,26294
2017-03-11T11:46:22.452Z,21681
2017-03-11T11:47:24.747Z,27777
2017-03-11T11:48:26.689Z,65536
2017-03-11T11:49:28.569Z,22326
2017-03-11T11:50:30.887Z,21415
2017-03-11T11:51:32.781Z,22169
2017-03-11T11:52:34.648Z,20337
2017-03-11T11:53:36.963Z,18598
2017-03-11T11:54:38.862Z,17693
2017-03-11T11:55:40.746Z,17042
2017-03-11T11:56:42.643Z,17474
2017-03-11T11:57:44.519Z,17441
2017-03-11T11:58:46.403Z,16693
2017-03-11T11:59:48.694Z,14375
2017-03-11T12:00:50.580Z,12634
2017-03-11T12:01:52.921Z,15043
2017-03-11T12:02:54.783Z,14899
2017-03-11T12:03:56.675Z,19152
2017-03-11T12:04:58.554Z,19724
2017-03-11T12:06:00.434Z,26607
2017-03-11T12:07:02.785Z,27755
2017-03-11T12:08:05.080Z,65536
2017-03-11T12:09:06.997Z,65536
2017-03-11T12:10:08.882Z,65536
2017-03-11T12:11:10.796Z,65536
2017-03-11T12:12:12.663Z,65536
2017-03-11T12:13:14.951Z,65536
2017-03-11T12:14:16.853Z,65536
2017-03-11T12:15:19.181Z,65536
2017-03-11T12:16:21.068Z,65536
2017-03-11T12:17:22.966Z,65536
2017-03-11T12:18:24.841Z,65536
2017-03-11T12:19:26.750Z,65536
2017-03-11T12:20:28.628Z,65536
2017-03-11T12:21:30.508Z,65536
2017-03-11T12:22:32.392Z,65536
2017-03-11T12:23:34.271Z,65536
2017-03-11T12:24:36.199Z,65536
2017-03-11T12:25:38.956Z,65536
2017-03-11T12:26:40.868Z,65536
2017-03-11T12:27:42.757Z,65536
2017-03-11T12:28:45.078Z,31797
2017-03-11T12:29:46.984Z,65536
2017-03-11T12:30:49.296Z,65536
2017-03-11T12:31:52.462Z,65536
2017-03-11T12:32:54.768Z,30562
2017-03-11T12:33:56.674Z,65536
2017-03-11T12:34:58.547Z,65536
2017-03-11T12:36:00.416Z,13534
2017-03-11T12:37:02.310Z,12657
2017-03-11T12:38:04.222Z,14675
2017-03-11T12:39:06.099Z,17308
2017-03-11T12:40:08.017Z,65536
2017-03-11T12:41:10.350Z,65536
2017-03-11T12:42:12.226Z,65536
2017-03-11T12:43:14.139Z,65536
2017-03-11T12:44:16.065Z,65536
2017-03-11T12:45:17.949Z,65536
2017-03-11T12:46:20.274Z,65536
2017-03-11T12:47:22.594Z,65536
2017-03-11T12:48:24.479Z,65536
2017-03-11T12:49:26.349Z,65536
2017-03-11T12:50:28.240Z,65536
2017-03-11T12:51:30.572Z,65536
2017-03-11T12:52:32.868Z,65536
2017-03-11T12:53:34.797Z,65536
2017-03-11T12:54:37.112Z,65536
2017-03-11T12:55:39.444Z,65536
2017-03-11T12:56:41.364Z,65536
2017-03-11T12:57:43.234Z,65536
2017-03-11T12:58:45.550Z,65536
2017-03-11T12:59:47.442Z,65536
2017-03-11T13:00:49.771Z,65536
2017-03-11T13:01:52.067Z,65536
2017-03-11T13:02:54.385Z,65536
2017-03-11T13:03:56.711Z,65536
2017-03-11T13:04:58.592Z,65536
2017-03-11T13:06:00.925Z,65536
2017-03-11T13:07:02.816Z,65536
2017-03-11T13:08:04.719Z,19121
2017-03-11T13:09:06.596Z,20363
2017-03-11T13:10:08.494Z,65536
2017-03-11T13:11:10.390Z,14619
2017-03-11T13:12:12.274Z,15230
2017-03-11T13:13:14.178Z,23329
2017-03-11T13:14:16.038Z,16375
2017-03-11T13:15:17.942Z,14885
2017-03-11T13:16:19.824Z,16453
2017-03-11T13:17:21.738Z,22629
2017-03-11T13:18:24.061Z,65536
2017-03-11T13:19:25.953Z,65536
2017-03-11T13:20:28.265Z,65536
2017-03-11T13:21:30.297Z,65536
2017-03-11T13:22:32.200Z,29639
2017-03-11T13:23:34.579Z,65536
2017-03-11T13:24:36.506Z,17625
2017-03-11T13:25:38.547Z,14084
2017-03-11T13:26:40.434Z,13207
2017-03-11T13:27:42.340Z,26302
2017-03-11T13:28:44.234Z,20867
2017-03-11T13:29:46.620Z,18680
2017-03-11T13:30:49.031Z,21804
2017-03-11T13:31:50.958Z,27354
2017-03-11T13:32:52.922Z,26745
2017-03-11T13:33:55.422Z,25413
2017-03-11T13:34:57.362Z,25662
2017-03-11T13:35:59.267Z,20398
2017-03-11T13:37:01.704Z,19940
2017-03-11T13:38:03.585Z,10776
2017-03-11T13:39:05.571Z,10411
2017-03-11T13:40:07.744Z,18920
2017-03-11T13:41:09.641Z,65536
2017-03-11T13:42:11.658Z,25495
2017-03-11T13:43:13.615Z,21705
2017-03-11T13:44:16.343Z,17208
2017-03-11T13:45:18.391Z,20008
2017-03-11T13:46:20.357Z,9692
2017-03-11T13:47:22.269Z,25032
2017-03-11T13:48:24.210Z,23266
2017-03-11T13:49:26.101Z,23891
2017-03-11T13:50:28.016Z,25680
2017-03-11T13:51:30.060Z,26944
2017-03-11T13:52:32.579Z,65536
2017-03-11T13:53:34.804Z,65536
2017-03-11T13:54:37.171Z,65536
2017-03-11T13:55:39.127Z,27202
2017-03-11T13:56:41.068Z,24327
2017-03-11T13:57:43.161Z,24601
2017-03-11T13:58:45.316Z,26310
2017-03-11T13:59:47.440Z,24434
2017-03-11T14:00:49.345Z,19352
2017-03-11T14:01:51.798Z,13034
2017-03-11T14:02:54.134Z,15235
2017-03-11T14:03:56.031Z,24222
2017-03-11T14:04:57.967Z,18392
2017-03-11T14:06:00.032Z,15749
2017-03-11T14:07:02.021Z,16662
2017-03-11T14:08:04.360Z,13963
2017-03-11T14:09:06.289Z,16624
2017-03-11T14:10:08.303Z,19490
2017-03-11T14:11:10.191Z,22000
2017-03-11T14:12:12.092Z,22315
2017-03-11T14:13:14.491Z,22542